Accueil
METAR-TAF:

METAR-TAF

Aéroports :

Agen, France

Aéroport Agen-La Garenne

latitude: 44-11N, longitude: 000-36E, altitude: 61 m

Observation

Le bulletin a été fait il y a 24 minutes, à 09:30 UTC
Vent 5 kt de nord/nord-ouest, variant entre ouest et nord/nord-est
Température 24°C
Humidité 61%
Pression 1022 hPa
Visibilité 10 km ou plus
Nuages fragmentés à une hauteur de 3100 ft

METAR: LFBA 170930Z AUTO 33005KT 270V020 9999 BKN031 24/16 Q1022 NOSIG

Heure: 11:54 (09:54 UTC)

Prévision

Le bulletin a été fait il y a 1 heure et 54 minutes, à 08:00 UTC
Prévision valable du 17 à 09 UTC au 17 à 18 UTC
Vent 2 kt de direction variable
Visibilité 10 km ou plus
pas de nuages en-dessous de 1500 mètres et pas de cumulonimbus.

TAF: LFBA 170800Z 1709/1718 VRB02KT CAVOK

Observations et prévisions météorologiques de plus de 4000 aéroports (messages METAR et TAF).

Les stations disponibles sont représentées par des disques jaunes et rouges sur la carte.

Passer la souris dessus pour voir le nom de la station.

Cliquer dessus pour voir les observations et prévisions météorologiques.

Pour changer de carte: cliquez sur les boutons verts avec une croix noire pour zoomer, sur le bouton vert avec un tiret pour effectuer un zoom arrière, ou sur les flèches vertes pour les cartes adjacentes.


METAR-TAF: